Estación Meteorológica Peña el Pijo (Robertgarden) [ 12/10/18 12:17:52 CET ]

Fecha Hora Presion(HPa) Temp (°C) Humedad % Rocio (°C) Viento ( m/s) Direccion Lluvia 1Hora(mm) Lluvia 24H(mm) LLuvia Total(mm)
2018-Oct-22 01:01:42 1012.100 8.2 89 6.5       53.35 84.95
2018-Oct-22 02:01:39 1012.400 7.7 89 6.0       51.28 84.95
2018-Oct-22 03:01:38 1012.100 7.3 89 5.6       49.21 84.95
2018-Oct-22 04:01:42 1011.900 7.2 90 5.7       44.03 84.95
2018-Oct-22 05:01:41 1011.700 6.8 90 5.3       12.95 84.95
2018-Oct-22 06:01:40 1011.600 6.4 90 4.9       3.10 84.95
2018-Oct-22 07:01:41 1011.500 6.9 90 5.4       1.55 84.95
2018-Oct-22 08:01:55 1011.900 6.5 91 5.1       1.55 84.95
2018-Oct-22 09:01:36 1012.400 6.9 91 5.5       1.03 84.95
2018-Oct-22 10:01:52 1012.800 10.6 93 9.5       0.51 84.95
2018-Oct-22 11:01:56 1012.700 15.3 92 14.0       0.51 84.95
2018-Oct-22 12:01:33 1012.400 20.1 73 15.1       0.51 84.95
2018-Oct-22 13:01:52 1012.300 21.8 58 13.2       0.51 84.95
2018-Oct-22 14:01:29 1011.700 21.6 55 12.1       0.51 84.95
2018-Oct-22 15:01:43 1011.300 23.4 50 12.4         84.95
2018-Oct-22 16:01:58 1011.500 22.3 46 10.0         84.95
2018-Oct-22 17:01:47 1011.600 21.6 49 10.4         84.95
2018-Oct-22 18:01:57 1011.700 18.3 57 9.6         84.95
2018-Oct-22 19:01:44 1012.000 16.1 67 10.0         84.95
2018-Oct-22 20:01:50 1012.800 13.1 74 8.5         84.95
2018-Oct-22 21:01:58 1013.600 12.3 79 8.8         84.95
2018-Oct-22 22:02:02 1014.200 11.3 82 8.3         84.95
2018-Oct-22 23:01:51 1014.600 10.1 84 7.5         84.95

Temperatura Máxima:23°    Temperatura Mínima:
Presión Máxima:1014.600 Hpa    Presión Mínima:1011.300 Hpa


Volver